Time;durP1;ratioP1;P1;durP2;ratioP2;P2;SDS_P1;SDS_P2;PMS_P1;PMS_P2;Temp;Humidity;BMP_temperature;BMP_pressure;BME280_temperature;BME280_humidity;BME280_pressure;Samples;Min_cycle;Max_cycle;Signal;HPM_P1;HPM_P2
2021/05/03 00:01:42;;;;;;;22.73;5.95;;;;;;;18.63;82.94;96389.19;4929364;29;20129;-71
2021/05/03 00:04:07;;;;;;;24.08;5.28;;;;;;;17.66;83.57;96248.16;4930007;29;20472;-70
2021/05/03 00:06:33;;;;;;;17.92;5.90;;;;;;;18.56;84.12;96398.56;4926675;29;20426;-70
2021/05/03 00:08:58;;;;;;;20.83;5.50;;;;;;;16.90;84.01;96154.28;4929175;29;20058;-69
2021/05/03 00:11:24;;;;;;;17.48;6.07;;;;;;;18.21;84.40;96371.34;4928201;29;20030;-70
2021/05/03 00:13:55;;;;;;;17.83;5.53;;;;;;;18.42;85.37;96404.53;4928176;29;20032;-69
2021/05/03 00:16:20;;;;;;;18.05;5.90;;;;;;;18.23;85.54;96363.28;4927778;29;20039;-70
2021/05/03 00:18:46;;;;;;;11.50;5.03;;;;;;;18.45;84.80;96408.47;4928649;29;20496;-70
2021/05/03 00:21:12;;;;;;;16.50;5.55;;;;;;;18.41;85.31;96436.63;4927996;29;20035;-70
2021/05/03 00:23:37;;;;;;;20.80;6.40;;;;;;;18.46;84.74;96427.69;4928698;29;20039;-70
2021/05/03 00:26:03;;;;;;;15.23;5.72;;;;;;;17.73;84.87;96323.63;4926836;29;20465;-70
2021/05/03 00:28:29;;;;;;;20.00;5.60;;;;;;;17.41;85.27;96265.50;4928583;29;20158;-71
2021/05/03 00:30:54;;;;;;;20.30;6.28;;;;;;;17.05;86.12;96221.91;4926688;29;20039;-71
2021/05/03 00:33:20;;;;;;;19.33;6.43;;;;;;;18.29;86.27;96417.63;4929059;29;20066;-69
2021/05/03 00:35:45;;;;;;;22.73;6.10;;;;;;;17.94;85.93;96356.78;4928542;29;20039;-69
2021/05/03 00:38:11;;;;;;;16.27;6.18;;;;;;;18.41;85.04;96419.00;4928895;29;20102;-69
2021/05/03 00:40:36;;;;;;;22.90;7.07;;;;;;;18.33;85.34;96412.72;4928965;29;20114;-70
2021/05/03 00:43:03;;;;;;;17.10;5.80;;;;;;;18.23;84.56;96373.72;4928983;29;20071;-69
2021/05/03 00:45:30;;;;;;;14.55;5.70;;;;;;;18.51;84.86;96418.72;4942987;29;20043;-70
2021/05/03 00:47:56;;;;;;;17.33;6.07;;;;;;;17.92;85.35;96362.03;4928627;29;20099;-69
2021/05/03 00:50:24;;;;;;;17.60;6.43;;;;;;;17.86;89.55;96439.44;4928354;29;20040;-69
2021/05/03 00:52:50;;;;;;;21.70;7.68;;;;;;;17.67;88.76;96378.59;4943017;29;20039;-70
2021/05/03 00:55:16;;;;;;;19.80;8.48;;;;;;;17.94;87.73;96401.63;4927548;29;20526;-68
2021/05/03 00:57:45;;;;;;;23.52;8.43;;;;;;;17.94;86.99;96390.41;4943945;29;20070;-69
2021/05/03 01:00:12;;;;;;;19.40;7.22;;;;;;;17.78;87.01;96391.13;4942383;29;20043;-69
2021/05/03 01:02:39;;;;;;;19.60;7.20;;;;;;;17.47;87.29;96324.59;4926954;29;20126;-69
2021/05/03 01:05:06;;;;;;;21.40;6.72;;;;;;;18.11;87.75;96434.06;4942945;29;20111;-68
2021/05/03 01:07:32;;;;;;;17.80;6.53;;;;;;;17.46;86.63;96314.63;4928505;29;20036;-69
2021/05/03 01:09:57;;;;;;;18.90;7.15;;;;;;;18.21;85.91;96437.84;4928552;29;20031;-69
2021/05/03 01:12:23;;;;;;;21.52;6.63;;;;;;;17.87;86.37;96379.34;4928043;29;20040;-69
2021/05/03 01:14:49;;;;;;;19.08;6.40;;;;;;;17.61;86.12;96338.28;4928643;29;20530;-69
2021/05/03 01:17:14;;;;;;;18.08;6.05;;;;;;;18.05;86.50;96410.59;4927738;29;20032;-69
2021/05/03 01:19:39;;;;;;;14.27;5.82;;;;;;;18.11;87.40;96412.41;4942875;29;20028;-70
2021/05/03 01:22:05;;;;;;;16.35;7.13;;;;;;;17.74;87.97;96392.44;4927636;29;20028;-71
2021/05/03 01:24:30;;;;;;;20.90;6.43;;;;;;;17.28;87.76;96300.19;4942692;29;20070;-71
2021/05/03 01:26:58;;;;;;;22.23;7.63;;;;;;;17.73;88.78;96396.47;4927532;29;20071;-70
2021/05/03 01:29:23;;;;;;;18.08;6.70;;;;;;;17.54;88.36;96355.25;4928225;29;20466;-70
2021/05/03 01:31:51;;;;;;;13.52;5.82;;;;;;;17.82;87.14;96393.88;4928006;29;20035;-69
2021/05/03 01:34:17;;;;;;;26.10;6.90;;;;;;;17.15;86.64;96327.25;4927455;29;20140;-69
2021/05/03 01:36:45;;;;;;;18.27;6.25;;;;;;;17.65;87.24;96412.66;4927905;29;20526;-69
2021/05/03 01:39:13;;;;;;;16.63;5.95;;;;;;;17.40;89.22;96400.34;4926358;29;20047;-69
2021/05/03 01:41:38;;;;;;;17.25;7.50;;;;;;;17.07;91.25;96398.56;4927307;29;20091;-72
2021/05/03 01:44:06;;;;;;;23.77;6.88;;;;;;;17.18;91.58;96413.94;4928250;29;21167;-71
2021/05/03 01:46:34;;;;;;;20.75;7.80;;;;;;;17.13;91.93;96419.25;4927495;29;20466;-71
2021/05/03 01:49:01;;;;;;;20.73;8.02;;;;;;;17.20;91.96;96425.50;4926467;29;20138;-71
2021/05/03 01:51:28;;;;;;;19.40;9.27;;;;;;;16.40;92.02;96333.41;4941499;29;20038;-71
2021/05/03 01:53:54;;;;;;;35.95;16.98;;;;;;;16.69;93.14;96383.28;4926389;29;20471;-73
2021/05/03 01:56:20;;;;;;;20.55;9.90;;;;;;;15.24;94.57;96189.22;4927156;29;20864;-72
2021/05/03 01:58:46;;;;;;;22.02;7.63;;;;;;;16.82;93.71;96432.56;4926396;28;20042;-71
2021/05/03 02:01:11;;;;;;;17.92;8.00;;;;;;;16.82;94.14;96435.38;4927055;29;20035;-71
2021/05/03 02:03:37;;;;;;;16.90;6.68;;;;;;;16.68;93.41;96401.28;4928060;29;20134;-70
2021/05/03 02:06:03;;;;;;;17.63;6.68;;;;;;;16.61;93.59;96400.16;4927921;29;20152;-70
2021/05/03 02:08:29;;;;;;;27.45;6.95;;;;;;;16.81;93.84;96447.00;4926361;29;20398;-71
2021/05/03 02:10:55;;;;;;;17.10;7.35;;;;;;;16.67;93.98;96408.06;4927167;29;20050;-70
2021/05/03 02:13:22;;;;;;;22.67;7.32;;;;;;;16.19;94.20;96344.13;4927384;29;20525;-71
2021/05/03 02:15:48;;;;;;;15.50;6.80;;;;;;;15.22;95.46;96233.50;4926849;29;20040;-70
2021/05/03 02:18:15;;;;;;;18.98;7.00;;;;;;;16.11;96.15;96376.19;4925287;29;20044;-70
2021/05/03 02:20:42;;;;;;;16.30;7.15;;;;;;;15.93;95.13;96326.19;4925283;29;20051;-71
2021/05/03 02:23:07;;;;;;;14.65;6.30;;;;;;;16.68;93.82;96434.84;4925548;29;20044;-71
2021/05/03 02:25:33;;;;;;;17.00;6.82;;;;;;;16.29;93.54;96383.13;4926497;29;20415;-70
2021/05/03 02:27:59;;;;;;;14.95;5.82;;;;;;;16.19;93.48;96395.25;4925929;29;20043;-71
2021/05/03 02:30:25;;;;;;;20.08;7.07;;;;;;;16.59;93.64;96430.59;4941099;29;20035;-70
2021/05/03 02:32:51;;;;;;;16.20;6.53;;;;;;;16.52;93.92;96413.09;4926893;29;20070;-70
2021/05/03 02:35:20;;;;;;;18.55;6.43;;;;;;;16.59;94.28;96427.78;4926119;29;20538;-71
2021/05/03 02:37:49;;;;;;;17.10;6.35;;;;;;;15.26;94.22;96239.81;4926746;29;20032;-70
2021/05/03 02:40:16;;;;;;;27.55;6.15;;;;;;;16.63;93.78;96440.91;4924847;29;20052;-70
2021/05/03 02:42:45;;;;;;;17.95;6.70;;;;;;;16.21;93.79;96425.56;4926950;29;20048;-71
2021/05/03 02:45:12;;;;;;;16.83;7.13;;;;;;;15.97;94.67;96377.22;4924869;29;20506;-72
2021/05/03 02:47:37;;;;;;;22.08;5.93;;;;;;;14.23;93.28;96099.38;4941447;29;20036;-73
2021/05/03 02:50:03;;;;;;;22.65;7.45;;;;;;;15.98;95.10;96426.28;4926905;29;20053;-70
2021/05/03 02:52:28;;;;;;;24.40;7.05;;;;;;;16.35;94.00;96482.03;4926324;29;20041;-71
2021/05/03 02:54:54;;;;;;;19.45;6.20;;;;;;;16.18;93.62;96438.38;4926457;29;20054;-71
2021/05/03 02:57:19;;;;;;;19.02;6.18;;;;;;;16.29;93.62;96478.16;4926000;29;20040;-71
2021/05/03 02:59:45;;;;;;;15.25;6.72;;;;;;;16.24;94.08;96469.44;4925113;29;20039;-70
2021/05/03 03:02:10;;;;;;;22.38;9.65;;;;;;;15.72;98.47;96487.69;4926270;29;20032;-70
2021/05/03 03:04:36;;;;;;;23.80;10.85;;;;;;;15.69;100.00;96483.72;4927075;29;20035;-69
2021/05/03 03:07:01;;;;;;;21.48;8.25;;;;;;;14.42;99.16;96299.38;4926106;29;20031;-70
2021/05/03 03:09:27;;;;;;;20.85;9.35;;;;;;;15.80;99.53;96489.97;4926575;29;20020;-70
2021/05/03 03:11:52;;;;;;;24.95;8.40;;;;;;;15.87;98.71;96489.88;4925998;29;20042;-71
2021/05/03 03:14:18;;;;;;;17.80;8.55;;;;;;;14.88;97.19;96366.63;4940688;29;20540;-71
2021/05/03 03:16:43;;;;;;;27.90;8.68;;;;;;;14.93;98.18;96368.97;4926408;29;20570;-71
2021/05/03 03:19:09;;;;;;;24.27;8.10;;;;;;;15.46;97.91;96458.47;4940936;29;20503;-70
2021/05/03 03:21:35;;;;;;;17.83;7.35;;;;;;;15.14;97.28;96424.53;4926641;29;20059;-71
2021/05/03 03:24:00;;;;;;;19.13;6.95;;;;;;;15.76;96.90;96517.13;4927053;29;20491;-72
2021/05/03 03:26:26;;;;;;;21.02;7.72;;;;;;;15.75;96.24;96518.34;4940424;29;20062;-72
2021/05/03 03:28:51;;;;;;;22.42;6.85;;;;;;;15.42;95.67;96445.75;4926142;29;20145;-72
2021/05/03 03:31:17;;;;;;;22.23;6.65;;;;;;;15.63;95.24;96479.00;4925611;29;20032;-71
2021/05/03 03:33:43;;;;;;;17.05;6.82;;;;;;;15.84;93.87;96524.22;4926458;29;20050;-71
2021/05/03 03:36:11;;;;;;;18.35;6.72;;;;;;;15.90;92.83;96528.13;4924141;29;20542;-72
2021/05/03 03:38:37;;;;;;;21.55;6.70;;;;;;;15.95;91.57;96552.81;4940342;29;20039;-72
2021/05/03 03:41:03;;;;;;;21.05;7.18;;;;;;;16.04;90.99;96539.16;4924474;29;20075;-70
2021/05/03 03:43:28;;;;;;;17.20;6.47;;;;;;;15.99;91.11;96542.41;4926315;29;20040;-70
2021/05/03 03:45:54;;;;;;;21.45;6.43;;;;;;;15.60;89.53;96516.91;4925622;29;20451;-70
2021/05/03 03:48:19;;;;;;;22.92;5.40;;;;;;;16.06;86.17;96552.72;4926284;29;20483;-71
2021/05/03 03:50:45;;;;;;;16.60;4.78;;;;;;;15.42;85.15;96519.13;4924087;29;20036;-71
2021/05/03 03:53:10;;;;;;;18.67;5.18;;;;;;;15.61;84.76;96498.97;4925694;29;20062;-70
2021/05/03 03:55:36;;;;;;;16.75;4.82;;;;;;;16.04;83.05;96578.28;4925442;29;20042;-71
2021/05/03 03:58:03;;;;;;;13.35;4.10;;;;;;;15.87;81.00;96520.59;4925652;29;20186;-71
2021/05/03 04:00:29;;;;;;;15.43;3.95;;;;;;;16.31;77.45;96581.13;4940071;29;20479;-71
2021/05/03 04:02:55;;;;;;;15.48;4.47;;;;;;;15.56;76.77;96445.59;4926279;29;20043;-71
2021/05/03 04:13:30;;;;;;;18.73;4.47;;;;;;;17.27;68.91;96598.13;4925933;29;20144;-71
2021/05/03 04:26:19;;;;;;;12.48;3.85;;;;;;;18.19;61.39;96598.09;4925466;29;20036;-71
2021/05/03 04:28:46;;;;;;;13.35;3.92;;;;;;;17.04;59.72;96433.00;4926062;29;20051;-72
2021/05/03 04:31:12;;;;;;;31.40;12.35;;;;;;;17.78;65.11;96536.06;4927353;29;20035;-72
2021/05/03 04:33:38;;;;;;;13.75;5.80;;;;;;;17.38;66.72;96453.16;4928828;29;20518;-71
2021/05/03 04:36:04;;;;;;;20.83;5.03;;;;;;;18.42;67.03;96595.25;4928546;29;20040;-71
2021/05/03 04:38:29;;;;;;;19.00;3.58;;;;;;;18.50;64.33;96585.47;4943541;29;20031;-72
2021/05/03 04:40:55;;;;;;;12.43;3.05;;;;;;;17.65;57.22;96456.66;4928919;29;20530;-70
2021/05/03 04:43:21;;;;;;;15.55;3.53;;;;;;;17.84;57.50;96447.47;4928900;29;20630;-71
2021/05/03 04:45:46;;;;;;;15.77;3.97;;;;;;;18.84;56.49;96602.72;4927672;29;20032;-72
2021/05/03 04:48:12;;;;;;;16.13;4.78;;;;;;;18.86;53.12;96557.38;4927231;29;20164;-71
2021/05/03 04:50:38;;;;;;;14.48;3.70;;;;;;;19.30;52.78;96622.16;4928180;29;20039;-70
2021/05/03 04:53:04;;;;;;;16.98;3.15;;;;;;;16.87;51.88;96210.28;4943009;29;20254;-71
2021/05/03 04:55:29;;;;;;;12.68;3.67;;;;;;;18.70;52.82;96478.81;4928479;29;20040;-70
2021/05/03 04:57:55;;;;;;;14.68;3.15;;;;;;;19.16;53.09;96537.41;4943199;29;20131;-71
2021/05/03 05:00:21;;;;;;;10.98;4.25;;;;;;;19.01;51.82;96492.06;4928224;29;20119;-71
2021/05/03 05:02:47;;;;;;;26.67;9.90;;;;;;;19.29;51.46;96563.59;4928084;29;20059;-71
2021/05/03 05:05:13;;;;;;;26.40;8.82;;;;;;;19.00;51.66;96507.31;4927415;29;20044;-70
2021/05/03 05:07:40;;;;;;;27.63;10.13;;;;;;;19.14;52.96;96478.88;4926188;29;20055;-71
2021/05/03 05:10:07;;;;;;;18.88;6.40;;;;;;;19.37;52.54;96492.78;4927869;29;20619;-71
2021/05/03 05:12:32;;;;;;;27.75;4.78;;;;;;;20.37;51.97;96644.31;4927770;29;20067;-71
2021/05/03 05:14:58;;;;;;;24.15;3.65;;;;;;;20.63;51.45;96639.53;4925646;29;20487;-71
2021/05/03 05:17:24;;;;;;;20.65;3.67;;;;;;;20.35;48.93;96567.19;4927246;29;20435;-72
2021/05/03 05:19:49;;;;;;;14.68;3.70;;;;;;;20.27;48.38;96532.06;4926294;29;20064;-72
2021/05/03 05:22:15;;;;;;;15.35;4.70;;;;;;;20.81;48.81;96631.38;4927288;29;20490;-71
2021/05/03 05:24:41;;;;;;;14.40;4.35;;;;;;;20.57;48.55;96579.41;4927413;29;20645;-72
2021/05/03 05:27:07;;;;;;;22.55;3.78;;;;;;;21.01;48.49;96620.72;4926909;29;20036;-72
2021/05/03 05:29:32;;;;;;;11.75;4.13;;;;;;;21.01;47.79;96586.94;4927334;29;20090;-72
2021/05/03 05:31:58;;;;;;;18.55;3.70;;;;;;;21.34;47.06;96650.28;4926937;29;20042;-70
2021/05/03 05:34:23;;;;;;;15.93;4.28;;;;;;;20.83;46.92;96564.16;4941748;29;20399;-73
2021/05/03 05:36:49;;;;;;;8.85;2.90;;;;;;;20.27;45.76;96518.00;4926938;29;20039;-71
2021/05/03 05:39:14;;;;;;;10.70;2.85;;;;;;;20.81;44.09;96541.28;4927343;29;20179;-71
2021/05/03 05:41:40;;;;;;;14.02;3.17;;;;;;;21.64;44.94;96669.44;4926752;29;20582;-70
2021/05/03 05:44:07;;;;;;;11.93;3.25;;;;;;;21.82;43.95;96661.22;4942623;29;20146;-69
2021/05/03 05:46:34;;;;;;;10.80;2.83;;;;;;;21.71;45.06;96617.66;4927908;29;20039;-71
2021/05/03 05:48:59;;;;;;;11.13;3.17;;;;;;;22.35;43.11;96668.66;4926508;28;20067;-71
2021/05/03 05:51:25;;;;;;;10.10;2.72;;;;;;;22.51;42.64;96641.50;4927424;29;20066;-71
2021/05/03 05:53:51;;;;;;;10.63;3.03;;;;;;;21.91;43.51;96509.03;4927450;29;20063;-72
2021/05/03 05:56:16;;;;;;;11.30;2.90;;;;;;;22.77;44.81;96609.09;4925330;29;20047;-71
2021/05/03 05:58:42;;;;;;;11.63;3.17;;;;;;;22.61;45.57;96572.59;4927785;29;20055;-72
2021/05/03 06:01:07;;;;;;;9.88;3.47;;;;;;;23.29;46.10;96671.28;4926631;29;20475;-68
2021/05/03 06:03:32;;;;;;;11.48;3.55;;;;;;;23.07;46.86;96633.75;4921810;29;20043;-63
2021/05/03 06:05:58;;;;;;;15.77;4.45;;;;;;;21.17;45.14;96324.84;4922558;29;20235;-66
2021/05/03 06:08:24;;;;;;;13.07;3.75;;;;;;;23.61;42.21;96684.97;4930530;29;20046;-73
2021/05/03 06:10:50;;;;;;;978.25;85.82;;;;;;;23.53;40.52;96639.22;4926519;29;20032;-73
2021/05/03 06:13:15;;;;;;;25.02;4.03;;;;;;;23.97;38.36;96676.63;4930250;29;20043;-70
2021/05/03 06:15:41;;;;;;;9.10;2.88;;;;;;;23.60;36.69;96582.34;4933196;28;20126;-62
2021/05/03 06:18:07;;;;;;;8.60;3.47;;;;;;;24.37;36.52;96673.72;4930788;28;20119;-71
2021/05/03 06:20:34;;;;;;;10.98;3.80;;;;;;;24.33;34.96;96679.53;4927287;29;20137;-69
2021/05/03 06:23:02;;;;;;;11.38;4.38;;;;;;;24.00;33.36;96627.59;4926481;29;20043;-64
2021/05/03 06:25:27;;;;;;;16.08;4.63;;;;;;;24.44;34.65;96679.88;4932335;29;20122;-61
2021/05/03 06:27:53;;;;;;;11.55;3.33;;;;;;;24.23;34.61;96677.97;4944024;28;20633;-62
2021/05/03 06:30:22;;;;;;;10.40;3.60;;;;;;;23.65;34.88;96572.47;4926927;29;20043;-65
2021/05/03 06:32:47;;;;;;;11.23;3.67;;;;;;;24.17;34.76;96699.63;4956418;28;20619;-67
2021/05/03 06:35:13;;;;;;;11.18;3.45;;;;;;;24.41;35.53;96686.47;4945241;28;20035;-70
2021/05/03 06:37:38;;;;;;;10.57;3.00;;;;;;;23.82;36.44;96604.91;4943956;28;20031;-71
2021/05/03 06:40:04;;;;;;;20.13;3.17;;;;;;;23.59;35.68;96594.94;4929751;28;20032;-61
2021/05/03 06:42:30;;;;;;;13.77;3.75;;;;;;;24.24;35.93;96676.69;4926353;29;20122;-69
2021/05/03 06:44:55;;;;;;;10.77;3.75;;;;;;;24.69;35.53;96712.81;4933356;29;20090;-65
2021/05/03 06:47:21;;;;;;;9.32;3.05;;;;;;;24.92;36.32;96698.81;4927291;29;20138;-68
2021/05/03 06:49:46;;;;;;;7.13;2.75;;;;;;;24.97;36.01;96695.34;4926604;29;20078;-68
2021/05/03 06:52:11;;;;;;;14.82;3.00;;;;;;;25.23;33.87;96702.22;4926381;29;20122;-63
2021/05/03 06:54:37;;;;;;;15.82;2.60;;;;;;;24.92;35.25;96647.78;4928030;29;20047;-65
2021/05/03 06:57:02;;;;;;;8.57;2.95;;;;;;;24.29;35.19;96543.00;4925470;29;20478;-74
2021/05/03 06:59:28;;;;;;;8.27;2.80;;;;;;;25.40;35.53;96671.50;4924461;29;20065;-68
2021/05/03 07:01:54;;;;;;;8.38;2.70;;;;;;;25.49;34.99;96673.50;4937827;29;20027;-70
2021/05/03 07:04:19;;;;;;;6.65;2.60;;;;;;;25.78;34.07;96668.81;4928779;28;20143;-71
2021/05/03 07:06:45;;;;;;;8.60;3.15;;;;;;;25.79;34.55;96698.00;4942623;28;20438;-69
2021/05/03 07:09:10;;;;;;;9.63;3.42;;;;;;;25.34;32.76;96656.38;4926290;29;20039;-65
2021/05/03 07:11:38;;;;;;;9.35;3.35;;;;;;;25.69;32.63;96682.28;4934615;29;20035;-69
2021/05/03 07:14:04;;;;;;;20.45;3.50;;;;;;;25.89;32.30;96665.47;4916450;29;20491;-69
2021/05/03 07:16:29;;;;;;;8.68;3.10;;;;;;;24.90;34.41;96626.84;4916830;29;20042;-70
2021/05/03 07:18:55;;;;;;;8.15;2.90;;;;;;;25.23;33.50;96650.38;4918011;28;20039;-73
2021/05/03 07:21:20;;;;;;;10.63;2.97;;;;;;;25.43;33.42;96698.13;4900647;29;20748;-70
2021/05/03 07:23:49;;;;;;;11.40;3.22;;;;;;;25.13;33.50;96706.31;4899970;29;20055;-69
2021/05/03 07:26:14;;;;;;;9.90;2.88;;;;;;;24.04;34.78;96614.09;4897561;29;20611;-74
2021/05/03 07:28:40;;;;;;;11.60;3.20;;;;;;;23.49;34.54;96513.38;4905841;28;20047;-70
2021/05/03 07:31:07;;;;;;;10.50;3.10;;;;;;;24.17;33.33;96540.34;4903201;28;20103;-70
2021/05/03 07:33:32;;;;;;;12.35;3.35;;;;;;;25.13;34.71;96686.47;4893543;29;20126;-61
2021/05/03 07:35:58;;;;;;;12.82;4.40;;;;;;;25.19;35.33;96644.91;4913800;29;21184;-67
2021/05/03 07:38:23;;;;;;;11.55;3.88;;;;;;;24.79;34.98;96582.00;4906180;28;20126;-70
2021/05/03 07:40:49;;;;;;;13.20;4.40;;;;;;;24.51;33.39;96571.94;4910420;29;20031;-65
2021/05/03 07:43:15;;;;;;;12.75;3.45;;;;;;;25.45;34.18;96690.69;4898373;29;20115;-67
2021/05/03 07:45:41;;;;;;;8.63;3.22;;;;;;;25.10;33.20;96630.72;4887273;29;20219;-67
2021/05/03 07:48:06;;;;;;;9.35;3.13;;;;;;;25.39;34.15;96652.91;4896570;29;20072;-69
2021/05/03 07:50:32;;;;;;;10.73;3.15;;;;;;;25.51;34.90;96699.34;4888322;29;20436;-75
2021/05/03 07:52:58;;;;;;;15.45;4.22;;;;;;;24.54;35.92;96593.66;4914496;29;20610;-68
2021/05/03 07:55:24;;;;;;;5.25;2.58;;;;;;;24.53;36.49;96662.88;4912857;29;20106;-74
2021/05/03 07:57:51;;;;;;;6.85;2.58;;;;;;;24.23;38.05;96709.09;4902397;29;20686;-74
2021/05/03 08:00:17;;;;;;;4.45;2.20;;;;;;;23.80;38.74;96700.75;4909640;29;20031;-69
2021/05/03 08:02:43;;;;;;;6.10;2.60;;;;;;;23.93;37.39;96715.59;4894368;28;20040;-64
2021/05/03 08:05:09;;;;;;;7.85;2.35;;;;;;;23.51;35.94;96554.06;4897960;28;20098;-66
2021/05/03 08:07:34;;;;;;;6.93;3.15;;;;;;;24.59;35.41;96714.03;4912352;29;20174;-69
2021/05/03 08:10:00;;;;;;;6.32;2.63;;;;;;;23.81;31.64;96509.94;4918772;28;20035;-73
2021/05/03 08:12:25;;;;;;;10.18;3.13;;;;;;;24.64;32.69;96634.88;4907851;28;20483;-74
2021/05/03 08:14:53;;;;;;;7.63;2.58;;;;;;;25.76;32.44;96727.34;4905661;29;20053;-73
2021/05/03 08:17:19;;;;;;;5.07;2.60;;;;;;;23.44;32.46;96364.16;4908532;29;20110;-64
2021/05/03 08:19:47;;;;;;;8.18;3.10;;;;;;;23.76;31.77;96371.97;4908948;28;20078;-77
2021/05/03 08:22:13;;;;;;;13.20;3.53;;;;;;;26.18;31.69;96708.25;4906451;29;20043;-66
2021/05/03 08:24:39;;;;;;;5.97;2.85;;;;;;;26.08;30.58;96710.34;4904499;29;20415;-76
2021/05/03 08:27:06;;;;;;;10.88;3.35;;;;;;;26.18;31.70;96713.91;4888538;29;20032;-71
2021/05/03 08:29:33;;;;;;;7.70;2.90;;;;;;;26.10;30.46;96665.22;4899102;29;20118;-70
2021/05/03 08:31:58;;;;;;;6.43;2.70;;;;;;;22.06;33.20;96126.47;4883947;29;20039;-68
2021/05/03 08:34:25;;;;;;;4.00;2.95;;;;;;;24.74;34.51;96616.63;4890603;29;20047;-69
2021/05/03 08:36:53;;;;;;;9.50;2.83;;;;;;;25.14;35.24;96671.06;4919084;29;20466;-72
2021/05/03 08:39:20;;;;;;;5.95;2.33;;;;;;;25.84;34.81;96711.53;4919773;28;20055;-70
2021/05/03 08:41:46;;;;;;;5.55;3.00;;;;;;;24.92;36.24;96695.97;4908160;29;20065;-60
2021/05/03 08:44:11;;;;;;;4.88;2.20;;;;;;;23.06;36.33;96473.97;4905000;29;20496;-70
2021/05/03 08:46:42;;;;;;;3.50;2.03;;;;;;;24.67;37.03;96727.47;4900737;29;20065;-71
2021/05/03 08:49:26;;;;;;;6.55;2.50;;;;;;;24.36;36.81;96641.00;4912484;28;20051;-77
2021/05/03 08:54:41;;;;;;;7.43;2.25;;;;;;;21.64;38.59;96379.06;4905233;29;20483;-75
2021/05/03 08:57:09;;;;;;;8.95;2.50;;;;;;;23.26;38.53;96601.56;4901853;29;20036;-71
2021/05/03 08:59:36;;;;;;;5.35;2.15;;;;;;;22.74;38.44;96547.88;4891888;29;20095;-70
2021/05/03 09:02:04;;;;;;;4.85;1.95;;;;;;;23.92;38.64;96728.94;4898267;29;20043;-74
2021/05/03 09:04:30;;;;;;;4.80;2.75;;;;;;;23.77;38.95;96687.53;4902073;29;20525;-67
2021/05/03 09:07:05;;;;;;;5.18;2.17;;;;;;;24.54;37.69;96740.94;4903197;29;20579;-77
2021/05/03 09:09:35;;;;;;;3.72;1.98;;;;;;;24.82;36.64;96734.06;4920058;28;20146;-79
2021/05/03 09:12:07;;;;;;;5.82;3.10;;;;;;;24.51;36.78;96673.91;4902342;29;20418;-73
2021/05/03 09:14:33;;;;;;;4.20;2.38;;;;;;;23.35;36.23;96548.66;4906945;29;20051;-70
2021/05/03 09:17:00;;;;;;;6.97;3.00;;;;;;;22.80;36.39;96462.09;4919032;28;20570;-73
2021/05/03 09:19:26;;;;;;;5.10;2.53;;;;;;;24.88;36.13;96735.00;4923402;28;20522;-72
2021/05/03 09:21:53;;;;;;;9.98;2.83;;;;;;;23.93;36.79;96622.22;4919266;28;20070;-71
2021/05/03 09:24:23;;;;;;;3.95;2.60;;;;;;;24.80;36.67;96718.81;4919456;28;20133;-71
2021/05/03 09:27:03;;;;;;;7.10;2.42;;;;;;;24.68;35.14;96672.38;4909521;28;20497;-68
2021/05/03 09:29:31;;;;;;;6.55;2.55;;;;;;;25.28;33.38;96720.66;4900733;29;20067;-67
2021/05/03 09:31:58;;;;;;;6.15;2.75;;;;;;;25.37;32.95;96734.84;4895805;29;20038;-71
2021/05/03 09:34:46;;;;;;;9.98;2.65;;;;;;;25.34;33.86;96732.19;4891816;29;20122;-68
2021/05/03 09:37:39;;;;;;;4.38;2.38;;;;;;;25.83;34.50;96721.34;4916436;29;20043;-62
2021/05/03 09:40:07;;;;;;;6.13;2.40;;;;;;;26.33;33.46;96697.75;4911639;29;20058;-67
2021/05/03 09:42:58;;;;;;;9.75;2.92;;;;;;;26.03;31.19;96599.50;4912470;28;20611;-67
2021/05/03 09:45:25;;;;;;;6.90;2.72;;;;;;;26.86;30.47;96766.88;4888542;29;20039;-60
2021/05/03 09:47:56;;;;;;;9.50;2.90;;;;;;;26.47;30.06;96654.41;4904062;28;20051;-65
2021/05/03 09:50:29;;;;;;;13.68;3.00;;;;;;;25.58;30.72;96560.00;4903511;29;20196;-66
2021/05/03 09:53:00;;;;;;;5.72;2.75;;;;;;;26.61;30.44;96724.72;4902878;29;20039;-74
2021/05/03 09:55:39;;;;;;;6.60;2.70;;;;;;;26.57;30.82;96687.19;4917432;28;20605;-61
2021/05/03 09:58:25;;;;;;;5.90;2.45;;;;;;;26.73;29.79;96724.50;4931751;28;20039;-63
2021/05/03 10:00:57;;;;;;;8.90;2.53;;;;;;;26.78;29.83;96723.03;4928604;29;20502;-69
2021/05/03 10:03:36;;;;;;;10.75;3.42;;;;;;;26.65;30.58;96731.06;4932628;28;20040;-67
2021/05/03 10:06:03;;;;;;;4.13;2.50;;;;;;;26.20;33.15;96736.97;4924969;29;20430;-66
2021/05/03 10:08:29;;;;;;;6.65;3.45;;;;;;;26.21;33.69;96730.00;4926674;29;20139;-65
2021/05/03 10:10:58;;;;;;;5.63;3.20;;;;;;;26.67;32.72;96729.28;4926602;29;20067;-67
2021/05/03 10:13:24;;;;;;;4.35;2.35;;;;;;;26.95;32.05;96714.88;4925373;29;20039;-65
2021/05/03 10:15:54;;;;;;;6.25;3.03;;;;;;;27.27;29.09;96720.44;4925177;29;20051;-66
2021/05/03 10:18:21;;;;;;;5.07;2.33;;;;;;;27.30;28.99;96705.22;4926446;29;20118;-67
2021/05/03 10:20:47;;;;;;;4.43;2.75;;;;;;;27.38;29.28;96726.34;4926052;29;20035;-65
2021/05/03 10:23:13;;;;;;;7.03;2.70;;;;;;;27.78;29.88;96726.56;4922521;29;20525;-66
2021/05/03 10:25:41;;;;;;;7.00;3.67;;;;;;;27.85;30.12;96720.44;4926843;29;20036;-66
2021/05/03 10:28:08;;;;;;;4.63;3.05;;;;;;;27.70;27.96;96730.28;4928738;29;20575;-65
2021/05/03 10:30:44;;;;;;;8.48;3.25;;;;;;;27.67;29.48;96697.09;4923650;29;20546;-64
2021/05/03 10:33:12;;;;;;;7.82;3.58;;;;;;;27.14;28.14;96614.66;4935578;29;20039;-67
2021/05/03 10:35:40;;;;;;;9.85;2.50;;;;;;;28.00;28.94;96726.16;4934313;29;20043;-64
2021/05/03 10:38:26;;;;;;;23.40;3.85;;;;;;;28.12;27.91;96722.97;4945697;28;20039;-65
2021/05/03 10:40:52;;;;;;;5.40;2.78;;;;;;;28.20;26.76;96719.75;4945341;28;20455;-66
2021/05/03 10:43:20;;;;;;;4.45;2.70;;;;;;;27.62;26.67;96727.03;4943993;28;20138;-65
2021/05/03 10:46:15;;;;;;;2.88;2.25;;;;;;;27.60;26.23;96738.13;4945168;28;20031;-64
2021/05/03 10:48:48;;;;;;;7.82;3.22;;;;;;;27.58;27.47;96752.09;4945106;28;20062;-67
2021/05/03 10:51:32;;;;;;;3.92;2.50;;;;;;;27.50;26.70;96756.59;4943617;29;20039;-66
2021/05/03 10:54:18;;;;;;;4.97;2.38;;;;;;;27.34;27.16;96745.66;4943935;29;20052;-67
2021/05/03 10:56:44;;;;;;;5.13;2.60;;;;;;;26.74;27.25;96608.75;4944519;28;20039;-68
2021/05/03 10:59:12;;;;;;;4.57;2.90;;;;;;;26.83;27.51;96736.59;4945731;28;20055;-68
2021/05/03 11:02:11;;;;;;;5.35;2.65;;;;;;;26.81;27.17;96739.13;4945718;28;20486;-67
2021/05/03 11:04:39;;;;;;;6.63;2.53;;;;;;;26.46;27.97;96652.84;4944076;28;20059;-67
2021/05/03 11:07:10;;;;;;;4.22;2.72;;;;;;;27.40;26.88;96723.78;4944886;28;20031;-65
2021/05/03 11:09:41;;;;;;;5.90;2.38;;;;;;;27.91;26.26;96723.41;4943863;29;20042;-66
2021/05/03 11:12:07;;;;;;;5.47;2.47;;;;;;;28.10;25.46;96719.06;4944624;28;20071;-67
2021/05/03 11:14:33;;;;;;;7.35;4.00;;;;;;;28.42;26.07;96714.38;4943763;29;20079;-67
2021/05/03 11:17:23;;;;;;;11.98;2.80;;;;;;;28.14;26.57;96711.09;4943660;29;20042;-68
2021/05/03 11:22:45;;;;;;;9.32;2.75;;;;;;;26.58;26.81;96637.59;4944985;28;20047;-67
2021/05/03 11:25:19;;;;;;;6.05;2.60;;;;;;;27.26;27.44;96718.88;4943373;28;20027;-66
2021/05/03 11:28:06;;;;;;;11.20;5.22;;;;;;;27.88;28.62;96736.56;4945444;28;20043;-67
2021/05/03 11:30:40;;;;;;;8.02;3.10;;;;;;;27.64;29.05;96693.19;4943202;28;20031;-67
2021/05/03 11:36:29;;;;;;;6.45;3.28;;;;;;;28.20;29.42;96711.97;4937038;28;20070;-66
2021/05/03 11:39:00;;;;;;;6.28;4.13;;;;;;;28.15;29.94;96676.41;4926675;29;20043;-67
2021/05/03 11:41:41;;;;;;;6.70;3.22;;;;;;;27.70;29.17;96704.66;4929413;29;20035;-67
2021/05/03 11:44:26;;;;;;;7.82;3.53;;;;;;;27.61;29.08;96694.16;4944213;29;20043;-68
2021/05/03 11:46:52;;;;;;;9.02;3.55;;;;;;;27.89;28.92;96698.28;4927796;29;20630;-67
2021/05/03 11:49:19;;;;;;;5.20;3.15;;;;;;;28.00;27.69;96664.28;4929798;29;20044;-66
2021/05/03 11:51:45;;;;;;;6.78;3.28;;;;;;;28.05;28.15;96694.91;4929237;29;20451;-67
2021/05/03 11:54:29;;;;;;;7.35;3.22;;;;;;;27.84;29.25;96706.69;4929351;29;20105;-66
2021/05/03 11:57:04;;;;;;;5.47;2.97;;;;;;;26.79;27.30;96645.03;4929437;29;20054;-67
2021/05/03 11:59:31;;;;;;;5.70;3.30;;;;;;;26.47;26.61;96702.72;4929971;29;20131;-66